Time;durP1;ratioP1;P1;durP2;ratioP2;P2;SDS_P1;SDS_P2;PMS_P1;PMS_P2;Temp;Humidity;BMP_temperature;BMP_pressure;BME280_temperature;BME280_humidity;BME280_pressure;Samples;Min_cycle;Max_cycle;Signal;HPM_P1;HPM_P2
2023/02/02 00:01:12;;;;;;;17.13;5.87;;;;;;;;;;5049418;28;20286;-76
2023/02/02 00:03:39;;;;;;;14.67;6.07;;;;;;;;;;5049827;28;20286;-75
2023/02/02 00:06:07;;;;;;;16.83;6.00;;;;;;;;;;5049647;28;20287;-76
2023/02/02 00:08:35;;;;;;;19.07;6.40;;;;;;;;;;5049560;28;20287;-76
2023/02/02 00:11:02;;;;;;;16.67;5.60;;;;;;;;;;5049355;28;20730;-76
2023/02/02 00:13:30;;;;;;;17.50;5.97;;;;;;;;;;5049335;28;20219;-76
2023/02/02 00:15:58;;;;;;;16.73;5.50;;;;;;;;;;5049368;28;20699;-77
2023/02/02 00:18:25;;;;;;;16.07;5.87;;;;;;;;;;5049446;28;20259;-76
2023/02/02 00:20:52;;;;;;;18.73;5.73;;;;;;;;;;5049210;28;20245;-76
2023/02/02 00:23:19;;;;;;;17.50;5.27;;;;;;;;;;5111108;28;20829;-76
2023/02/02 00:25:49;;;;;;;16.07;5.67;;;;;;;;;;5112037;28;20288;-76
2023/02/02 00:28:17;;;;;;;19.53;4.93;;;;;;;;;;5112184;28;20257;-76
2023/02/02 00:30:45;;;;;;;15.90;5.20;;;;;;;;;;5112091;28;20201;-76
2023/02/02 00:33:12;;;;;;;19.33;5.17;;;;;;;;;;5112398;28;20281;-76
2023/02/02 00:35:42;;;;;;;14.47;5.10;;;;;;;;;;5112190;28;20229;-76
2023/02/02 00:38:09;;;;;;;14.80;4.87;;;;;;;;;;5112014;28;20233;-76
2023/02/02 00:40:36;;;;;;;19.10;5.00;;;;;;;;;;5112734;28;20198;-76
2023/02/02 00:43:04;;;;;;;16.57;4.77;;;;;;;;;;5112127;28;20198;-75
2023/02/02 00:45:30;;;;;;;15.40;4.60;;;;;;;;;;5111671;28;20194;-74
2023/02/02 00:47:59;;;;;;;16.03;4.60;;;;;;;;;;5111844;28;20237;-76
2023/02/02 00:50:26;;;;;;;16.50;4.63;;;;;;;;;;5111552;28;20276;-76
2023/02/02 00:52:53;;;;;;;18.30;6.20;;;;;;;;;;5111995;28;20239;-76
2023/02/02 00:55:20;;;;;;;23.20;6.67;;;;;;;;;;5111842;28;20297;-76
2023/02/02 00:57:48;;;;;;;19.20;6.03;;;;;;;;;;5111177;28;20221;-76
2023/02/02 01:00:17;;;;;;;17.07;5.30;;;;;;;;;;5111239;28;20257;-76
2023/02/02 01:02:44;;;;;;;16.23;4.43;;;;;;;;;;5111584;28;20198;-76
2023/02/02 01:05:13;;;;;;;16.67;4.83;;;;;;;;;;5111561;28;20741;-75
2023/02/02 01:07:41;;;;;;;14.97;4.90;;;;;;;;;;5111900;28;20284;-76
2023/02/02 01:10:10;;;;;;;16.50;5.90;;;;;;;;;;5111544;28;20727;-76
2023/02/02 01:12:37;;;;;;;24.73;7.80;;;;;;;;;;5111573;28;20206;-76
2023/02/02 01:15:04;;;;;;;23.67;8.73;;;;;;;;;;5112220;28;20289;-76
2023/02/02 01:17:31;;;;;;;33.50;9.70;;;;;;;;;;5111656;28;20217;-76
2023/02/02 01:19:59;;;;;;;23.07;8.87;;;;;;;;;;5111301;28;20313;-76
2023/02/02 01:22:27;;;;;;;18.03;6.70;;;;;;;;;;5111293;28;20749;-76
2023/02/02 01:24:54;;;;;;;18.93;6.27;;;;;;;;;;5111540;28;20667;-76
2023/02/02 01:27:21;;;;;;;21.23;6.90;;;;;;;;;;5111194;28;20256;-76
2023/02/02 01:29:49;;;;;;;21.17;7.23;;;;;;;;;;5111233;28;20288;-76
2023/02/02 01:32:16;;;;;;;15.60;7.23;;;;;;;;;;5111672;28;20297;-77
2023/02/02 01:34:43;;;;;;;16.27;5.80;;;;;;;;;;5111840;28;20292;-76
2023/02/02 01:37:10;;;;;;;15.53;5.40;;;;;;;;;;5110983;28;20640;-75
2023/02/02 01:39:39;;;;;;;12.83;4.87;;;;;;;;;;5111494;28;20253;-76
2023/02/02 01:42:12;;;;;;;17.43;5.13;;;;;;;;;;5111265;28;20285;-75
2023/02/02 01:44:57;;;;;;;15.97;4.50;;;;;;;;;;5111583;28;20236;-76
2023/02/02 01:47:27;;;;;;;14.90;4.50;;;;;;;;;;5111835;28;20224;-76
2023/02/02 01:49:55;;;;;;;15.77;4.80;;;;;;;;;;5111206;28;20237;-76
2023/02/02 01:52:24;;;;;;;15.47;4.80;;;;;;;;;;5111396;28;20198;-76
2023/02/02 01:54:54;;;;;;;18.47;4.90;;;;;;;;;;5111569;28;20277;-75
2023/02/02 01:57:24;;;;;;;13.90;4.30;;;;;;;;;;5111030;28;20289;-76
2023/02/02 01:59:53;;;;;;;17.73;5.30;;;;;;;;;;5110928;28;20221;-76
2023/02/02 02:02:20;;;;;;;15.80;5.73;;;;;;;;;;5111453;28;20688;-76
2023/02/02 02:04:48;;;;;;;15.77;5.23;;;;;;;;;;5111316;28;20302;-76
2023/02/02 02:07:15;;;;;;;13.53;4.80;;;;;;;;;;5111176;28;20709;-76
2023/02/02 02:09:42;;;;;;;12.70;4.57;;;;;;;;;;5114977;28;20284;-76
2023/02/02 02:12:14;;;;;;;14.53;4.00;;;;;;;;;;5114614;28;20293;-75
2023/02/02 02:17:45;;;;;;;13.90;4.93;;;;;;;;;;5094645;28;20632;-76
2023/02/02 02:26:35;;;;;;;18.83;4.90;;;;;;;;;;5031691;28;20205;-76
2023/02/02 02:29:16;;;;;;;16.00;4.50;;;;;;;;;;5031655;28;20319;-76
2023/02/02 02:32:05;;;;;;;23.27;5.47;;;;;;;;;;5031595;28;20236;-76
2023/02/02 02:34:36;;;;;;;13.67;5.87;;;;;;;;;;5031531;28;20346;-75
2023/02/02 02:37:08;;;;;;;16.77;6.40;;;;;;;;;;5031553;28;20291;-76
2023/02/02 02:39:39;;;;;;;17.00;6.80;;;;;;;;;;5031321;28;20225;-75
2023/02/02 02:42:10;;;;;;;14.87;6.10;;;;;;;;;;5031411;28;20665;-75
2023/02/02 02:44:37;;;;;;;13.00;5.07;;;;;;;;;;5031700;28;20291;-75
2023/02/02 02:47:06;;;;;;;11.93;4.83;;;;;;;;;;5031374;28;20308;-76
2023/02/02 02:49:33;;;;;;;15.97;4.80;;;;;;;;;;5031110;28;20829;-74
2023/02/02 02:52:00;;;;;;;13.57;4.60;;;;;;;;;;5031118;28;20232;-75
2023/02/02 02:54:29;;;;;;;12.30;4.20;;;;;;;;;;5030869;28;20271;-75
2023/02/02 02:57:14;;;;;;;13.77;4.70;;;;;;;;;;5031440;28;20283;-76
2023/02/02 02:59:47;;;;;;;11.27;3.93;;;;;;;;;;5030469;28;20409;-75
2023/02/02 03:02:25;;;;;;;10.73;4.20;;;;;;;;;;5030899;28;20284;-76
2023/02/02 03:04:56;;;;;;;16.07;4.50;;;;;;;;;;5093151;28;20219;-75
2023/02/02 03:07:26;;;;;;;11.57;3.87;;;;;;;;;;5093687;28;20615;-76
2023/02/02 03:09:55;;;;;;;13.50;4.13;;;;;;;;;;5093105;28;20290;-75
2023/02/02 03:12:22;;;;;;;18.20;4.70;;;;;;;;;;5107946;28;20228;-76
2023/02/02 03:14:49;;;;;;;13.93;4.10;;;;;;;;;;5113910;28;20225;-76
2023/02/02 03:17:18;;;;;;;13.03;3.90;;;;;;;;;;5113471;28;20229;-76
2023/02/02 03:19:45;;;;;;;13.53;3.63;;;;;;;;;;5112389;28;20333;-76
2023/02/02 03:22:12;;;;;;;12.57;4.13;;;;;;;;;;5113992;28;20284;-76
2023/02/02 03:24:39;;;;;;;9.50;3.80;;;;;;;;;;5113436;28;20225;-76
2023/02/02 03:27:07;;;;;;;13.63;4.90;;;;;;;;;;5113461;28;20228;-77
2023/02/02 03:29:34;;;;;;;13.77;4.10;;;;;;;;;;5113136;28;20320;-76
2023/02/02 03:32:01;;;;;;;11.50;4.37;;;;;;;;;;5113137;28;20194;-74
2023/02/02 03:34:30;;;;;;;13.13;4.40;;;;;;;;;;5113108;28;20285;-76
2023/02/02 03:36:57;;;;;;;11.73;4.43;;;;;;;;;;5113143;28;20285;-76
2023/02/02 03:39:24;;;;;;;10.67;3.93;;;;;;;;;;5112342;28;20316;-76
2023/02/02 03:41:51;;;;;;;14.83;4.53;;;;;;;;;;5113489;28;20293;-76
2023/02/02 03:44:18;;;;;;;17.60;4.10;;;;;;;;;;5113067;28;20234;-76
2023/02/02 03:46:45;;;;;;;12.57;4.10;;;;;;;;;;5112985;27;20237;-76
2023/02/02 03:49:13;;;;;;;12.77;4.33;;;;;;;;;;5113016;28;20225;-75
2023/02/02 03:51:43;;;;;;;11.37;4.40;;;;;;;;;;5112546;28;20289;-76
2023/02/02 03:54:10;;;;;;;13.07;4.90;;;;;;;;;;5112686;28;20206;-76
2023/02/02 03:56:37;;;;;;;10.23;4.37;;;;;;;;;;5113080;28;20293;-77
2023/02/02 03:59:04;;;;;;;11.30;4.10;;;;;;;;;;5112584;28;20320;-76
2023/02/02 04:01:32;;;;;;;11.97;3.83;;;;;;;;;;5112922;28;20222;-76
2023/02/02 04:03:59;;;;;;;12.30;4.13;;;;;;;;;;5112764;28;20317;-77
2023/02/02 04:06:27;;;;;;;14.90;3.90;;;;;;;;;;5112833;28;20244;-77
2023/02/02 04:08:55;;;;;;;8.57;3.30;;;;;;;;;;5112413;28;20292;-77
2023/02/02 04:11:23;;;;;;;16.20;3.33;;;;;;;;;;5112492;28;20292;-76
2023/02/02 04:13:50;;;;;;;7.47;3.53;;;;;;;;;;5112412;28;20190;-76
2023/02/02 04:16:18;;;;;;;12.77;3.67;;;;;;;;;;5112291;28;20571;-75
2023/02/02 04:18:45;;;;;;;14.03;3.63;;;;;;;;;;5112256;28;20225;-76
2023/02/02 04:21:12;;;;;;;9.60;3.40;;;;;;;;;;5112047;28;20197;-77
2023/02/02 04:23:39;;;;;;;11.70;3.83;;;;;;;;;;5112652;28;20233;-76
2023/02/02 04:26:08;;;;;;;14.70;4.23;;;;;;;;;;5112179;28;20197;-77
2023/02/02 04:28:35;;;;;;;8.27;3.83;;;;;;;;;;5112585;28;20324;-76
2023/02/02 04:31:02;;;;;;;13.40;4.00;;;;;;;;;;5111858;28;20280;-76
2023/02/02 04:33:30;;;;;;;13.17;4.00;;;;;;;;;;5112318;28;20293;-76
2023/02/02 04:35:57;;;;;;;15.40;3.47;;;;;;;;;;5112009;27;20509;-76
2023/02/02 04:38:24;;;;;;;9.70;3.07;;;;;;;;;;5111954;28;20294;-76
2023/02/02 04:40:51;;;;;;;15.63;3.30;;;;;;;;;;5111804;28;20229;-76
2023/02/02 04:43:20;;;;;;;13.73;3.40;;;;;;;;;;5111846;28;20288;-76
2023/02/02 04:45:47;;;;;;;13.63;3.30;;;;;;;;;;5111989;28;20276;-75
2023/02/02 04:48:14;;;;;;;9.97;3.33;;;;;;;;;;5112017;28;20232;-76
2023/02/02 04:50:41;;;;;;;14.53;3.70;;;;;;;;;;5111488;28;20297;-76
2023/02/02 04:53:08;;;;;;;15.97;3.43;;;;;;;;;;5111884;28;20662;-76
2023/02/02 04:55:38;;;;;;;12.13;2.87;;;;;;;;;;5111643;28;20684;-77
2023/02/02 04:58:06;;;;;;;10.87;3.27;;;;;;;;;;5111909;28;20284;-74
2023/02/02 05:00:34;;;;;;;11.60;2.93;;;;;;;;;;5111485;28;20316;-76
2023/02/02 05:03:01;;;;;;;12.27;3.50;;;;;;;;;;5112218;28;20285;-76
2023/02/02 05:05:29;;;;;;;11.17;3.20;;;;;;;;;;5111136;28;20288;-77
2023/02/02 05:07:56;;;;;;;14.27;3.23;;;;;;;;;;5111564;28;20572;-76
2023/02/02 05:10:23;;;;;;;9.93;2.83;;;;;;;;;;5111763;28;20239;-77
2023/02/02 05:12:52;;;;;;;9.70;3.47;;;;;;;;;;5111466;28;20284;-75
2023/02/02 05:15:21;;;;;;;9.17;2.77;;;;;;;;;;5111504;28;20194;-76
2023/02/02 05:17:49;;;;;;;10.13;3.10;;;;;;;;;;5111682;28;20201;-77
2023/02/02 05:20:17;;;;;;;13.60;3.37;;;;;;;;;;5111198;28;20321;-77
2023/02/02 05:22:44;;;;;;;8.97;2.80;;;;;;;;;;5111613;28;20233;-76
2023/02/02 05:25:11;;;;;;;9.37;2.87;;;;;;;;;;5111787;28;20621;-76
2023/02/02 05:27:38;;;;;;;12.17;3.10;;;;;;;;;;5111074;28;20710;-76
2023/02/02 05:30:06;;;;;;;10.87;3.03;;;;;;;;;;5111689;28;20221;-76
2023/02/02 05:32:33;;;;;;;12.67;3.13;;;;;;;;;;5111285;28;20725;-77
2023/02/02 05:35:01;;;;;;;14.13;3.37;;;;;;;;;;5111226;28;20220;-76
2023/02/02 05:37:29;;;;;;;12.03;3.47;;;;;;;;;;5111433;28;20293;-76
2023/02/02 05:39:56;;;;;;;14.90;3.20;;;;;;;;;;5111350;28;20257;-76
2023/02/02 05:42:23;;;;;;;13.33;3.03;;;;;;;;;;5111391;28;20281;-76
2023/02/02 05:44:50;;;;;;;12.17;2.87;;;;;;;;;;5115110;28;20281;-76
2023/02/02 05:47:18;;;;;;;13.80;3.03;;;;;;;;;;5115462;28;20292;-76
2023/02/02 05:49:45;;;;;;;12.90;3.07;;;;;;;;;;5114883;28;20222;-77
2023/02/02 05:52:16;;;;;;;10.03;2.70;;;;;;;;;;5115403;28;20281;-77
2023/02/02 05:54:43;;;;;;;11.13;3.00;;;;;;;;;;5115131;28;20240;-76
2023/02/02 05:57:10;;;;;;;8.67;2.80;;;;;;;;;;5115241;28;20692;-76
2023/02/02 05:59:38;;;;;;;8.80;3.10;;;;;;;;;;5114816;28;20788;-77
2023/02/02 06:02:05;;;;;;;13.87;3.53;;;;;;;;;;5115579;28;20292;-76
2023/02/02 06:04:32;;;;;;;10.30;2.60;;;;;;;;;;5114829;28;20217;-76
2023/02/02 06:06:59;;;;;;;13.43;3.47;;;;;;;;;;5114829;28;20281;-76
2023/02/02 06:09:28;;;;;;;11.37;3.07;;;;;;;;;;5115099;28;20296;-76
2023/02/02 06:11:55;;;;;;;9.83;3.07;;;;;;;;;;5114670;28;20285;-74
2023/02/02 06:14:22;;;;;;;9.17;2.63;;;;;;;;;;5114383;28;20322;-76
2023/02/02 06:16:49;;;;;;;14.10;3.57;;;;;;;;;;5114642;28;20248;-76
2023/02/02 06:19:16;;;;;;;11.23;2.90;;;;;;;;;;5113805;28;20312;-76
2023/02/02 06:21:43;;;;;;;8.53;3.00;;;;;;;;;;5114996;28;20280;-75
2023/02/02 06:24:11;;;;;;;10.70;3.30;;;;;;;;;;5114715;28;20280;-76
2023/02/02 06:26:39;;;;;;;13.10;3.40;;;;;;;;;;5114289;28;20286;-76
2023/02/02 06:29:06;;;;;;;15.90;3.63;;;;;;;;;;5124374;27;20304;-76
2023/02/02 06:31:33;;;;;;;9.53;3.30;;;;;;;;;;5135067;27;20280;-76
2023/02/02 06:34:01;;;;;;;12.60;3.77;;;;;;;;;;5134724;27;20293;-76
2023/02/02 06:36:28;;;;;;;9.93;3.60;;;;;;;;;;5118119;27;20229;-75
2023/02/02 06:38:56;;;;;;;14.50;3.77;;;;;;;;;;5114816;28;20284;-76
2023/02/02 06:41:24;;;;;;;15.13;4.27;;;;;;;;;;5114039;28;20288;-75
2023/02/02 06:43:52;;;;;;;18.43;5.83;;;;;;;;;;5111115;27;20292;-77
2023/02/02 06:46:19;;;;;;;18.37;5.70;;;;;;;;;;5113620;28;20233;-77
2023/02/02 06:48:47;;;;;;;19.73;6.00;;;;;;;;;;5113951;28;20290;-76
2023/02/02 06:51:14;;;;;;;14.00;4.67;;;;;;;;;;5101815;27;20241;-77
2023/02/02 06:53:41;;;;;;;12.43;4.33;;;;;;;;;;5098010;28;20631;-76
2023/02/02 06:56:12;;;;;;;15.37;5.10;;;;;;;;;;5113320;28;20623;-77
2023/02/02 06:58:40;;;;;;;13.47;4.97;;;;;;;;;;5114780;27;20843;-76
2023/02/02 07:01:09;;;;;;;16.47;4.77;;;;;;;;;;5113340;28;20229;-77
2023/02/02 07:03:37;;;;;;;18.30;5.53;;;;;;;;;;5113904;27;20288;-76
2023/02/02 07:06:11;;;;;;;9.83;4.57;;;;;;;;;;5113841;28;20671;-76
2023/02/02 07:08:38;;;;;;;11.43;4.07;;;;;;;;;;5109498;28;20692;-76
2023/02/02 07:11:05;;;;;;;11.97;3.73;;;;;;;;;;5108858;28;20745;-76
2023/02/02 07:13:32;;;;;;;11.80;3.80;;;;;;;;;;5099353;28;20292;-76
2023/02/02 07:16:00;;;;;;;8.77;3.83;;;;;;;;;;5112529;28;21052;-76
2023/02/02 07:18:29;;;;;;;13.60;4.50;;;;;;;;;;5113775;28;20232;-76
2023/02/02 07:20:58;;;;;;;14.87;4.10;;;;;;;;;;5113958;28;20225;-76
2023/02/02 07:23:26;;;;;;;15.83;5.10;;;;;;;;;;5113447;28;20217;-76
2023/02/02 07:26:00;;;;;;;15.30;4.27;;;;;;;;;;5113341;28;20286;-76
2023/02/02 07:28:27;;;;;;;13.83;4.10;;;;;;;;;;5113337;28;20253;-77
2023/02/02 07:30:54;;;;;;;9.73;3.37;;;;;;;;;;5112975;28;20230;-77
2023/02/02 07:33:22;;;;;;;11.30;3.57;;;;;;;;;;5112853;28;20197;-77
2023/02/02 07:35:51;;;;;;;16.03;3.77;;;;;;;;;;5113572;28;20201;-77
2023/02/02 07:38:18;;;;;;;12.37;4.37;;;;;;;;;;5113098;27;20309;-78
2023/02/02 07:40:45;;;;;;;13.43;4.67;;;;;;;;;;5111597;28;20316;-78
2023/02/02 07:43:13;;;;;;;11.03;4.73;;;;;;;;;;5112479;28;20745;-77
2023/02/02 07:45:40;;;;;;;12.30;4.87;;;;;;;;;;5112936;28;20201;-77
2023/02/02 07:48:07;;;;;;;17.63;5.30;;;;;;;;;;5112974;28;20213;-76
2023/02/02 07:50:34;;;;;;;18.27;6.00;;;;;;;;;;5113078;28;20255;-77
2023/02/02 07:53:03;;;;;;;23.73;6.83;;;;;;;;;;5112952;28;20286;-77
2023/02/02 07:55:30;;;;;;;18.50;7.30;;;;;;;;;;5113177;28;20293;-82
2023/02/02 07:57:57;;;;;;;15.53;5.83;;;;;;;;;;5106358;28;20235;-79
2023/02/02 08:00:25;;;;;;;16.97;5.23;;;;;;;;;;5111980;28;20222;-78
2023/02/02 08:02:52;;;;;;;18.53;5.00;;;;;;;;;;5112406;28;20293;-77
2023/02/02 08:05:21;;;;;;;26.00;5.70;;;;;;;;;;5112639;28;20194;-78
2023/02/02 08:07:48;;;;;;;14.57;4.90;;;;;;;;;;5112309;28;20693;-78
2023/02/02 08:10:17;;;;;;;19.03;5.53;;;;;;;;;;5112289;28;20200;-78
2023/02/02 08:12:44;;;;;;;17.87;5.83;;;;;;;;;;5112157;28;20237;-78
2023/02/02 08:15:12;;;;;;;20.23;5.47;;;;;;;;;;5111654;28;20225;-77
2023/02/02 08:17:39;;;;;;;14.00;5.07;;;;;;;;;;5112228;28;20232;-78
2023/02/02 08:20:07;;;;;;;22.57;5.20;;;;;;;;;;5110271;28;20333;-76
2023/02/02 08:22:34;;;;;;;16.60;5.23;;;;;;;;;;5112299;28;20285;-78
2023/02/02 08:25:01;;;;;;;16.70;5.20;;;;;;;;;;5111998;28;20233;-78
2023/02/02 08:27:30;;;;;;;13.90;4.70;;;;;;;;;;5110171;28;20281;-78
2023/02/02 08:29:57;;;;;;;13.97;4.40;;;;;;;;;;5109639;28;20205;-78
2023/02/02 08:32:24;;;;;;;12.90;4.90;;;;;;;;;;5111902;28;20764;-78
2023/02/02 08:34:52;;;;;;;13.50;5.17;;;;;;;;;;5112154;28;20225;-78
2023/02/02 08:37:19;;;;;;;13.07;4.93;;;;;;;;;;5111680;28;20197;-78
2023/02/02 08:39:46;;;;;;;10.57;4.90;;;;;;;;;;5111775;28;20199;-79
2023/02/02 08:42:14;;;;;;;13.90;5.67;;;;;;;;;;5111932;28;20635;-79
2023/02/02 08:44:42;;;;;;;11.57;6.07;;;;;;;;;;5111971;28;20253;-78
2023/02/02 08:47:09;;;;;;;14.93;6.33;;;;;;;;;;5112118;28;20631;-78
2023/02/02 08:49:37;;;;;;;17.53;5.73;;;;;;;;;;5111996;28;20280;-78
2023/02/02 08:52:04;;;;;;;13.67;5.10;;;;;;;;;;5105553;28;20290;-79
2023/02/02 08:54:31;;;;;;;14.70;4.50;;;;;;;;;;5096964;28;20364;-78
2023/02/02 08:56:58;;;;;;;15.90;4.37;;;;;;;;;;5090912;28;20232;-78
2023/02/02 08:59:25;;;;;;;12.43;4.03;;;;;;;;;;5091274;28;20737;-79
2023/02/02 09:01:54;;;;;;;12.93;4.10;;;;;;;;;;5091289;28;20353;-79
2023/02/02 09:04:21;;;;;;;15.87;4.53;;;;;;;;;;5091417;28;20742;-79
2023/02/02 09:06:49;;;;;;;14.57;3.93;;;;;;;;;;5091635;28;20225;-79
2023/02/02 09:09:16;;;;;;;11.87;4.20;;;;;;;;;;5091038;28;20677;-77
2023/02/02 09:11:44;;;;;;;11.47;4.60;;;;;;;;;;5099868;28;20842;-78
2023/02/02 09:14:12;;;;;;;11.43;4.30;;;;;;;;;;5111827;28;20283;-79
2023/02/02 09:16:39;;;;;;;12.23;4.53;;;;;;;;;;5111153;28;20855;-79
2023/02/02 09:19:08;;;;;;;14.33;5.43;;;;;;;;;;5114729;28;20217;-79
2023/02/02 09:21:36;;;;;;;11.90;4.90;;;;;;;;;;5115730;28;20308;-80
2023/02/02 09:24:07;;;;;;;12.10;4.50;;;;;;;;;;5115302;28;20207;-79
2023/02/02 09:26:34;;;;;;;10.13;4.63;;;;;;;;;;5115289;28;20683;-79
2023/02/02 09:29:02;;;;;;;19.70;4.50;;;;;;;;;;5115798;28;20312;-79
2023/02/02 09:31:30;;;;;;;11.13;4.33;;;;;;;;;;5115540;28;20211;-80
2023/02/02 09:34:00;;;;;;;16.47;4.87;;;;;;;;;;5115436;28;20232;-80
2023/02/02 09:36:29;;;;;;;13.23;4.63;;;;;;;;;;5115439;28;20293;-78
2023/02/02 09:38:56;;;;;;;15.93;4.80;;;;;;;;;;5110341;28;20376;-79
2023/02/02 09:41:42;;;;;;;13.53;4.13;;;;;;;;;;5105446;28;20252;-79
2023/02/02 09:44:15;;;;;;;11.97;3.97;;;;;;;;;;5115111;28;20681;-79
2023/02/02 09:46:48;;;;;;;15.87;3.87;;;;;;;;;;5115435;28;20274;-79
2023/02/02 09:49:17;;;;;;;13.20;4.00;;;;;;;;;;5115520;28;20224;-78
2023/02/02 09:51:47;;;;;;;16.43;4.20;;;;;;;;;;5115078;28;20284;-79
2023/02/02 09:54:18;;;;;;;12.73;3.60;;;;;;;;;;5115090;28;20688;-79
2023/02/02 09:56:49;;;;;;;16.70;4.40;;;;;;;;;;5115131;28;20197;-79
2023/02/02 09:59:19;;;;;;;11.07;3.87;;;;;;;;;;5115073;28;20243;-79
2023/02/02 10:01:47;;;;;;;12.37;3.90;;;;;;;;;;5115163;28;20316;-79
2023/02/02 10:04:17;;;;;;;14.73;3.87;;;;;;;;;;5114572;28;20289;-79
2023/02/02 10:06:46;;;;;;;10.67;3.60;;;;;;;;;;5115023;28;20193;-79
2023/02/02 10:09:22;;;;;;;10.40;3.90;;;;;;;;;;5114721;28;20222;-79
2023/02/02 10:11:52;;;;;;;10.63;3.43;;;;;;;;;;5115104;28;20202;-79
2023/02/02 10:14:22;;;;;;;11.83;3.50;;;;;;;;;;5112131;28;20288;-79
2023/02/02 10:16:52;;;;;;;8.10;3.53;;;;;;;;;;5102736;28;20237;-80
2023/02/02 10:19:24;;;;;;;13.70;3.23;;;;;;;;;;5114568;27;20632;-79
2023/02/02 10:21:54;;;;;;;11.47;3.50;;;;;;;;;;5114496;28;20609;-79
2023/02/02 10:24:23;;;;;;;8.67;3.37;;;;;;;;;;5114353;28;20290;-80
2023/02/02 10:26:52;;;;;;;12.37;3.83;;;;;;;;;;5115148;28;20718;-79
2023/02/02 10:29:27;;;;;;;11.00;3.57;;;;;;;;;;5114579;28;20298;-79
2023/02/02 10:31:59;;;;;;;14.40;3.67;;;;;;;;;;5114890;28;20284;-79
2023/02/02 10:34:30;;;;;;;11.20;3.53;;;;;;;;;;5114542;28;20293;-79
2023/02/02 10:37:03;;;;;;;12.23;3.70;;;;;;;;;;5114521;28;20213;-79
2023/02/02 10:39:38;;;;;;;11.07;4.10;;;;;;;;;;5114166;28;20204;-79
2023/02/02 10:42:09;;;;;;;11.37;3.30;;;;;;;;;;5114148;28;20673;-79
2023/02/02 10:44:43;;;;;;;10.33;3.87;;;;;;;;;;5113886;28;20232;-78
2023/02/02 10:47:13;;;;;;;12.87;3.67;;;;;;;;;;5114197;28;20221;-79
2023/02/02 10:49:41;;;;;;;12.07;4.37;;;;;;;;;;5114005;28;20221;-79
2023/02/02 10:52:15;;;;;;;12.97;4.10;;;;;;;;;;5114149;28;20620;-79
2023/02/02 10:54:57;;;;;;;14.97;4.10;;;;;;;;;;5113789;28;20247;-80
2023/02/02 10:57:33;;;;;;;13.40;3.77;;;;;;;;;;5114314;28;20260;-80
2023/02/02 11:00:04;;;;;;;11.37;2.90;;;;;;;;;;5113921;28;20233;-80
2023/02/02 11:02:32;;;;;;;10.57;3.17;;;;;;;;;;5113218;28;20667;-80
2023/02/02 11:07:44;;;;;;;7.70;2.93;;;;;;;;;;5110881;28;20215;-80
2023/02/02 11:10:13;;;;;;;7.37;3.13;;;;;;;;;;5113856;28;20194;-79
2023/02/02 11:12:44;;;;;;;10.10;3.30;;;;;;;;;;5113605;28;20651;-79
2023/02/02 11:15:25;;;;;;;14.33;3.63;;;;;;;;;;5113671;28;20217;-80
2023/02/02 11:17:53;;;;;;;10.67;3.63;;;;;;;;;;5113407;27;20193;-79
2023/02/02 11:20:24;;;;;;;11.30;3.60;;;;;;;;;;5098799;28;20202;-79
2023/02/02 11:23:00;;;;;;;9.37;3.87;;;;;;;;;;5106974;28;20311;-79
2023/02/02 11:25:31;;;;;;;9.73;4.23;;;;;;;;;;5113177;28;20201;-79
2023/02/02 11:27:58;;;;;;;10.53;3.60;;;;;;;;;;5113707;28;20348;-79
2023/02/02 11:30:28;;;;;;;7.87;3.80;;;;;;;;;;5113560;28;20201;-79
2023/02/02 11:32:56;;;;;;;14.50;4.03;;;;;;;;;;5112721;28;20222;-80
2023/02/02 11:35:24;;;;;;;8.47;3.43;;;;;;;;;;5113016;28;20297;-79
2023/02/02 11:37:56;;;;;;;7.90;2.77;;;;;;;;;;5112386;28;20741;-77
2023/02/02 11:40:34;;;;;;;9.60;3.30;;;;;;;;;;5109731;28;20601;-79
2023/02/02 11:43:03;;;;;;;8.07;3.17;;;;;;;;;;5109495;28;20629;-78
2023/02/02 11:45:34;;;;;;;11.40;3.23;;;;;;;;;;5108991;28;20236;-78
2023/02/02 11:48:02;;;;;;;9.87;2.70;;;;;;;;;;5111589;28;20292;-79
2023/02/02 11:50:30;;;;;;;9.27;2.60;;;;;;;;;;5112122;28;20293;-79
2023/02/02 11:52:57;;;;;;;10.80;2.93;;;;;;;;;;5111365;28;20213;-79
2023/02/02 11:55:27;;;;;;;7.67;2.93;;;;;;;;;;5111336;28;20615;-78
2023/02/02 11:58:13;;;;;;;7.70;2.60;;;;;;;;;;5111644;28;20277;-78
2023/02/02 12:00:48;;;;;;;7.40;2.03;;;;;;;;;;5110149;28;20221;-77
2023/02/02 12:03:23;;;;;;;8.53;2.00;;;;;;;;;;5109193;28;20189;-77
2023/02/02 12:05:51;;;;;;;5.97;2.20;;;;;;;;;;5108288;28;20270;-78
2023/02/02 12:08:19;;;;;;;9.07;2.27;;;;;;;;;;5111078;28;20277;-78
2023/02/02 12:10:51;;;;;;;9.80;2.43;;;;;;;;;;5111483;28;20292;-79
2023/02/02 12:13:23;;;;;;;6.40;2.10;;;;;;;;;;5111490;28;20625;-78
2023/02/02 12:15:59;;;;;;;9.73;2.10;;;;;;;;;;5111007;28;20218;-77
2023/02/02 12:18:37;;;;;;;6.30;2.20;;;;;;;;;;5111225;28;20246;-78
2023/02/02 12:21:05;;;;;;;6.93;2.00;;;;;;;;;;5111026;28;20212;-80
2023/02/02 12:23:43;;;;;;;6.43;2.70;;;;;;;;;;5108753;28;20229;-78
2023/02/02 12:26:15;;;;;;;7.77;2.50;;;;;;;;;;5111009;28;20231;-77
2023/02/02 12:29:01;;;;;;;10.50;2.80;;;;;;;;;;5111836;28;20316;-78
2023/02/02 12:31:33;;;;;;;7.30;2.30;;;;;;;;;;5112365;28;20289;-79
2023/02/02 12:34:05;;;;;;;6.00;2.23;;;;;;;;;;5112037;28;20749;-79
2023/02/02 12:36:37;;;;;;;5.70;2.30;;;;;;;;;;5103701;28;21076;-79
2023/02/02 12:39:10;;;;;;;10.10;2.77;;;;;;;;;;5108110;28;20240;-78
2023/02/02 12:41:45;;;;;;;9.53;3.00;;;;;;;;;;5111884;28;20834;-79
2023/02/02 12:44:14;;;;;;;8.10;3.13;;;;;;;;;;5111799;28;20247;-78
2023/02/02 12:46:59;;;;;;;8.60;2.90;;;;;;;;;;5111898;28;20284;-79
2023/02/02 12:49:51;;;;;;;7.53;2.20;;;;;;;;;;5111513;28;20297;-79
2023/02/02 12:52:24;;;;;;;6.93;1.80;;;;;;;;;;5111940;28;20280;-76
2023/02/02 12:55:00;;;;;;;6.03;2.00;;;;;;;;;;5112015;28;20659;-79
2023/02/02 12:57:33;;;;;;;4.63;2.23;;;;;;;;;;5111965;28;20194;-79
2023/02/02 13:00:06;;;;;;;9.57;3.00;;;;;;;;;;5111686;28;20293;-80
2023/02/02 13:02:36;;;;;;;7.20;3.30;;;;;;;;;;5111951;28;20324;-79
2023/02/02 13:05:18;;;;;;;7.73;3.10;;;;;;;;;;5111552;28;20284;-79
2023/02/02 13:07:47;;;;;;;6.13;3.00;;;;;;;;;;5111744;28;20228;-78
2023/02/02 13:10:21;;;;;;;8.73;4.40;;;;;;;;;;5111686;28;20288;-79
2023/02/02 13:12:52;;;;;;;7.63;2.90;;;;;;;;;;5111612;28;20229;-78
2023/02/02 13:15:20;;;;;;;5.83;3.17;;;;;;;;;;5111147;28;20232;-77
2023/02/02 13:17:49;;;;;;;8.40;3.83;;;;;;;;;;5110794;28;20666;-79
2023/02/02 13:20:24;;;;;;;7.10;3.07;;;;;;;;;;5111619;28;20200;-78
2023/02/02 13:22:53;;;;;;;6.70;3.17;;;;;;;;;;5111318;28;20308;-79
2023/02/02 13:25:25;;;;;;;6.17;2.50;;;;;;;;;;5111492;28;20281;-78
2023/02/02 13:27:53;;;;;;;6.97;2.90;;;;;;;;;;5111178;28;20265;-79
2023/02/02 13:30:26;;;;;;;6.10;2.60;;;;;;;;;;5111716;28;20292;-81
2023/02/02 13:32:55;;;;;;;7.97;2.80;;;;;;;;;;5111402;28;20648;-78
2023/02/02 13:35:24;;;;;;;7.77;2.63;;;;;;;;;;5111520;28;20298;-79
2023/02/02 13:37:52;;;;;;;9.33;2.77;;;;;;;;;;5110871;28;20194;-79
2023/02/02 13:40:24;;;;;;;9.40;2.70;;;;;;;;;;5111127;28;20288;-79
2023/02/02 13:42:54;;;;;;;9.50;3.10;;;;;;;;;;5111248;28;20312;-80
2023/02/02 13:45:29;;;;;;;7.03;2.63;;;;;;;;;;5111044;28;20737;-80
2023/02/02 13:47:59;;;;;;;6.87;2.53;;;;;;;;;;5110833;28;20289;-78
2023/02/02 13:50:29;;;;;;;7.17;2.20;;;;;;;;;;5111194;28;20280;-80
2023/02/02 13:53:09;;;;;;;13.60;3.43;;;;;;;;;;5111433;28;20194;-79
2023/02/02 13:55:57;;;;;;;6.57;2.10;;;;;;;;;;5111407;28;20273;-79
2023/02/02 13:58:39;;;;;;;5.90;1.80;;;;;;;;;;5110735;28;20221;-79
2023/02/02 14:01:08;;;;;;;4.53;1.70;;;;;;;;;;5108519;28;20292;-79
2023/02/02 14:03:38;;;;;;;5.07;1.70;;;;;;;;;;5105236;28;20271;-79
2023/02/02 14:06:08;;;;;;;4.73;1.70;;;;;;;;;;5109391;28;20202;-79
2023/02/02 14:08:36;;;;;;;6.30;1.23;;;;;;;;;;5114821;28;20266;-78
2023/02/02 14:11:05;;;;;;;4.37;1.20;;;;;;;;;;5114627;28;20717;-79
2023/02/02 14:16:24;;;;;;;4.37;1.40;;;;;;;;;;5113899;28;20208;-79
2023/02/02 14:18:57;;;;;;;4.57;1.43;;;;;;;;;;5115253;28;20229;-78
2023/02/02 14:21:41;;;;;;;5.53;1.80;;;;;;;;;;5114602;28;20201;-78
2023/02/02 14:27:05;;;;;;;6.37;2.83;;;;;;;;;;5109036;27;20993;-78
2023/02/02 14:29:38;;;;;;;4.77;2.03;;;;;;;;;;5109235;28;20204;-78
2023/02/02 14:32:27;;;;;;;4.83;1.90;;;;;;;;;;5107094;28;20205;-77
2023/02/02 14:34:55;;;;;;;4.37;1.70;;;;;;;;;;5094986;28;20303;-78
2023/02/02 14:37:37;;;;;;;5.40;1.53;;;;;;;;;;5108537;28;20202;-79
2023/02/02 14:40:17;;;;;;;3.90;1.30;;;;;;;;;;5108930;28;20333;-78
2023/02/02 14:45:38;;;;;;;2.87;1.70;;;;;;;;;;5108490;28;20236;-78
2023/02/02 14:48:10;;;;;;;2.67;1.40;;;;;;;;;;5108619;28;20250;-78
2023/02/02 14:50:45;;;;;;;3.10;1.20;;;;;;;;;;5108619;28;20285;-78
2023/02/02 14:53:30;;;;;;;4.87;1.70;;;;;;;;;;5108686;28;20208;-79
2023/02/02 14:55:59;;;;;;;4.47;1.47;;;;;;;;;;5108389;28;20225;-78
2023/02/02 14:58:29;;;;;;;3.87;1.10;;;;;;;;;;5108570;28;20284;-78
2023/02/02 15:00:59;;;;;;;3.23;1.30;;;;;;;;;;5104139;28;20252;-78
2023/02/02 15:03:36;;;;;;;6.27;1.70;;;;;;;;;;5104020;28;20271;-78
2023/02/02 15:06:07;;;;;;;2.87;0.90;;;;;;;;;;5099550;28;20265;-78
2023/02/02 15:08:34;;;;;;;4.00;1.40;;;;;;;;;;5106677;28;20549;-78